createdAt,value
2022-11-03T00:05:18.201Z,7.50
2022-11-03T00:07:44.767Z,7.22
2022-11-03T00:10:11.291Z,7.15
2022-11-03T00:12:38.447Z,7.15
2022-11-03T00:15:05.370Z,6.72
2022-11-03T00:17:31.910Z,6.15
2022-11-03T00:20:51.202Z,5.03
2022-11-03T00:23:35.112Z,4.50
2022-11-03T00:26:07.186Z,4.35
2022-11-03T00:28:34.517Z,3.40
2022-11-03T00:31:05.267Z,2.83
2022-11-03T00:33:32.839Z,2.53
2022-11-03T00:36:01.325Z,2.70
2022-11-03T00:38:31.270Z,3.03
2022-11-03T00:41:37.698Z,2.55
2022-11-03T00:44:04.375Z,2.53
2022-11-03T00:46:34.982Z,2.35
2022-11-03T00:49:02.025Z,2.20
2022-11-03T00:51:34.445Z,2.10
2022-11-03T00:54:03.401Z,2.28
2022-11-03T00:56:40.982Z,2.15
2022-11-03T00:59:28.561Z,1.90
2022-11-03T01:01:55.229Z,1.95
2022-11-03T01:04:40.189Z,2.00
2022-11-03T01:09:55.045Z,1.90
2022-11-03T01:12:21.587Z,1.70
2022-11-03T01:14:50.984Z,1.52
2022-11-03T01:17:23.716Z,1.62
2022-11-03T01:19:51.037Z,2.20
2022-11-03T01:22:42.438Z,1.62
2022-11-03T01:25:58.829Z,2.00
2022-11-03T01:28:47.674Z,2.05
2022-11-03T01:31:23.959Z,1.70
2022-11-03T01:33:52.567Z,1.98
2022-11-03T01:36:19.930Z,1.80
2022-11-03T01:38:47.074Z,1.60
2022-11-03T01:41:22.204Z,1.60
2022-11-03T01:44:11.736Z,1.95
2022-11-03T01:46:44.205Z,1.52
2022-11-03T01:49:17.480Z,1.85
2022-11-03T01:51:48.504Z,2.10
2022-11-03T01:54:19.765Z,1.80
2022-11-03T01:56:56.089Z,2.00
2022-11-03T01:59:58.411Z,1.70
2022-11-03T02:02:44.658Z,1.83
2022-11-03T02:05:13.486Z,1.77
2022-11-03T02:08:00.502Z,1.65
2022-11-03T02:10:27.118Z,2.10
2022-11-03T02:12:53.868Z,1.70
2022-11-03T02:15:22.290Z,1.60
2022-11-03T02:17:51.917Z,1.75
2022-11-03T02:20:24.240Z,1.40
2022-11-03T02:23:01.757Z,1.33
2022-11-03T02:25:42.612Z,1.90
2022-11-03T02:28:10.791Z,1.50
2022-11-03T02:30:46.286Z,1.85
2022-11-03T02:33:35.774Z,1.37
2022-11-03T02:38:46.062Z,1.92
2022-11-03T02:41:14.660Z,1.67
2022-11-03T02:43:43.999Z,1.60
2022-11-03T02:46:13.596Z,1.73
2022-11-03T02:52:57.634Z,1.50
2022-11-03T02:55:53.222Z,1.67
2022-11-03T02:58:34.931Z,1.50
2022-11-03T03:01:15.042Z,1.37
2022-11-03T03:03:48.159Z,1.87
2022-11-03T03:06:39.015Z,2.12
2022-11-03T03:09:10.415Z,1.80
2022-11-03T03:11:42.523Z,1.77
2022-11-03T03:14:22.869Z,1.60
2022-11-03T03:20:44.333Z,1.75
2022-11-03T03:23:23.580Z,2.30
2022-11-03T03:26:03.512Z,1.60
2022-11-03T03:28:38.778Z,1.70
2022-11-03T03:31:13.298Z,2.65
2022-11-03T03:33:43.549Z,1.50
2022-11-03T03:36:26.651Z,1.77
2022-11-03T03:39:02.670Z,1.60
2022-11-03T03:41:32.752Z,1.40
2022-11-03T03:44:03.137Z,1.58
2022-11-03T03:50:24.043Z,1.70
2022-11-03T03:52:57.262Z,3.20
2022-11-03T03:55:30.674Z,3.15
2022-11-03T03:57:59.496Z,2.70
2022-11-03T04:00:27.030Z,2.67
2022-11-03T04:02:56.291Z,3.15
2022-11-03T04:05:22.836Z,2.87
2022-11-03T04:07:49.586Z,3.10
2022-11-03T04:10:17.453Z,2.90
2022-11-03T04:13:03.923Z,3.28
2022-11-03T04:15:49.339Z,3.10
2022-11-03T04:18:35.076Z,2.80
2022-11-03T04:21:20.349Z,3.78
2022-11-03T04:23:46.956Z,4.32
2022-11-03T04:26:16.378Z,3.03
2022-11-03T04:28:43.892Z,4.32
2022-11-03T04:31:14.828Z,4.50
2022-11-03T04:33:41.900Z,4.50
2022-11-03T04:36:30.048Z,4.30
2022-11-03T04:38:56.657Z,4.18
2022-11-03T04:41:25.758Z,4.40
2022-11-03T04:43:53.437Z,4.03
2022-11-03T04:47:16.604Z,4.50
2022-11-03T04:50:03.076Z,4.12
2022-11-03T04:52:30.097Z,4.15
2022-11-03T04:54:56.688Z,4.20
2022-11-03T04:57:23.277Z,4.43
2022-11-03T04:59:53.346Z,4.40
2022-11-03T05:02:21.329Z,4.57
2022-11-03T05:04:47.918Z,4.22
2022-11-03T05:07:17.460Z,4.50
2022-11-03T05:09:44.108Z,4.30
2022-11-03T05:12:10.768Z,4.10
2022-11-03T05:14:37.640Z,4.40
2022-11-03T05:17:15.794Z,3.97
2022-11-03T05:20:28.162Z,4.30
2022-11-03T05:25:31.984Z,4.55
2022-11-03T05:27:58.668Z,4.22
2022-11-03T05:35:00.862Z,4.03
2022-11-03T05:37:31.009Z,4.45
2022-11-03T05:40:05.106Z,3.78
2022-11-03T05:42:42.062Z,4.25
2022-11-03T05:45:20.575Z,4.28
2022-11-03T05:47:49.045Z,4.35
2022-11-03T05:50:25.723Z,4.90
2022-11-03T05:52:56.216Z,6.30
2022-11-03T05:55:29.954Z,7.28
2022-11-03T05:58:00.124Z,8.90
2022-11-03T06:00:37.522Z,11.00
2022-11-03T06:03:05.529Z,9.23
2022-11-03T06:05:33.870Z,8.30
2022-11-03T06:08:03.924Z,8.45
2022-11-03T06:10:45.448Z,7.80
2022-11-03T06:13:16.373Z,7.28
2022-11-03T06:15:45.683Z,7.32
2022-11-03T06:18:22.131Z,7.37
2022-11-03T06:21:02.907Z,6.78
2022-11-03T06:23:32.770Z,6.75
2022-11-03T06:26:02.675Z,6.30
2022-11-03T06:28:36.934Z,5.53
2022-11-03T06:31:07.224Z,5.03
2022-11-03T06:33:35.894Z,5.00
2022-11-03T06:36:13.337Z,5.15
2022-11-03T06:38:39.994Z,4.75
2022-11-03T06:41:19.330Z,3.87
2022-11-03T06:43:45.906Z,4.60
2022-11-03T06:46:18.739Z,5.00
2022-11-03T06:48:45.585Z,5.45
2022-11-03T06:51:31.722Z,5.22
2022-11-03T06:54:00.468Z,5.45
2022-11-03T06:56:31.659Z,6.15
2022-11-03T06:58:58.490Z,6.62
2022-11-03T07:01:29.777Z,7.32
2022-11-03T07:04:03.016Z,6.75
2022-11-03T07:06:34.404Z,8.52
2022-11-03T07:09:05.014Z,8.75
2022-11-03T07:11:55.429Z,8.02
2022-11-03T07:14:31.694Z,8.57
2022-11-03T07:17:04.510Z,8.02
2022-11-03T07:19:36.118Z,7.80
2022-11-03T07:22:04.882Z,8.98
2022-11-03T07:24:34.810Z,8.48
2022-11-03T07:27:36.128Z,8.18
2022-11-03T07:30:08.371Z,8.55
2022-11-03T07:32:35.501Z,10.70
2022-11-03T07:35:53.372Z,9.15
2022-11-03T07:38:24.101Z,9.90
2022-11-03T07:40:53.134Z,9.25
2022-11-03T07:43:23.904Z,11.23
2022-11-03T07:45:50.453Z,10.55
2022-11-03T07:48:33.779Z,10.75
2022-11-03T07:51:12.408Z,11.23
2022-11-03T07:53:45.565Z,11.52
2022-11-03T07:56:24.902Z,11.60
2022-11-03T07:58:55.807Z,10.95
2022-11-03T08:01:26.477Z,10.90
2022-11-03T08:03:57.027Z,13.10
2022-11-03T08:06:23.554Z,12.63
2022-11-03T08:08:50.133Z,12.85
2022-11-03T08:11:16.950Z,13.13
2022-11-03T08:13:43.505Z,12.50
2022-11-03T08:16:10.147Z,12.82
2022-11-03T08:18:37.174Z,12.48
2022-11-03T08:21:03.997Z,12.88
2022-11-03T08:23:30.955Z,12.65
2022-11-03T08:25:57.970Z,12.65
2022-11-03T08:28:24.531Z,13.77
2022-11-03T08:30:51.137Z,12.35
2022-11-03T08:33:18.037Z,12.18
2022-11-03T08:35:44.710Z,12.93
2022-11-03T08:38:11.419Z,11.90
2022-11-03T08:40:37.933Z,12.70
2022-11-03T08:43:05.923Z,12.98
2022-11-03T08:45:32.654Z,12.98
2022-11-03T08:47:59.206Z,12.52
2022-11-03T08:50:25.856Z,11.80
2022-11-03T08:52:52.395Z,12.75
2022-11-03T08:55:19.038Z,12.55
2022-11-03T08:57:45.658Z,11.98
2022-11-03T09:00:12.962Z,11.77
2022-11-03T09:02:39.816Z,13.20
2022-11-03T09:05:07.824Z,12.73
2022-11-03T09:10:23.448Z,12.80
2022-11-03T09:12:54.021Z,12.27
2022-11-03T09:15:20.841Z,13.65
2022-11-03T09:17:47.365Z,12.10
2022-11-03T09:20:14.093Z,13.07
2022-11-03T09:22:40.642Z,13.32
2022-11-03T09:25:07.752Z,14.10
2022-11-03T09:27:34.374Z,13.73
2022-11-03T09:30:13.146Z,13.98
2022-11-03T09:32:41.078Z,14.73
2022-11-03T09:35:09.729Z,14.18
2022-11-03T09:37:36.935Z,14.25
2022-11-03T09:40:04.340Z,14.98
2022-11-03T09:42:34.453Z,14.40
2022-11-03T09:45:02.097Z,14.48
2022-11-03T09:47:33.672Z,14.15
2022-11-03T09:50:00.865Z,14.38
2022-11-03T09:52:27.696Z,14.77
2022-11-03T09:54:59.712Z,15.35
2022-11-03T09:57:29.309Z,13.97
2022-11-03T09:59:56.128Z,15.55
2022-11-03T10:02:29.396Z,13.70
2022-11-03T10:05:00.096Z,15.50
2022-11-03T10:07:28.826Z,15.40
2022-11-03T10:09:56.705Z,14.60
2022-11-03T10:12:25.278Z,15.13
2022-11-03T10:14:54.141Z,14.60
2022-11-03T10:17:26.756Z,14.98
2022-11-03T10:19:56.519Z,13.88
2022-11-03T10:22:23.132Z,15.30
2022-11-03T10:25:09.619Z,15.32
2022-11-03T10:27:36.151Z,16.15
2022-11-03T10:30:09.607Z,16.42
2022-11-03T10:32:36.494Z,16.45
2022-11-03T10:35:25.066Z,17.33
2022-11-03T10:37:51.825Z,17.55
2022-11-03T10:40:51.762Z,17.87
2022-11-03T10:43:18.313Z,17.10
2022-11-03T10:45:44.908Z,18.27
2022-11-03T10:48:11.433Z,16.98
2022-11-03T10:50:40.298Z,17.12
2022-11-03T10:53:17.472Z,17.45
2022-11-03T10:55:44.750Z,16.02
2022-11-03T10:58:11.615Z,17.55
2022-11-03T11:00:41.559Z,17.85
2022-11-03T11:03:08.708Z,18.23
2022-11-03T11:05:35.547Z,18.98
2022-11-03T11:08:02.651Z,17.67
2022-11-03T11:10:32.599Z,17.65
2022-11-03T11:13:19.010Z,16.37
2022-11-03T11:15:53.959Z,17.15
2022-11-03T11:18:29.869Z,17.87
2022-11-03T11:20:57.920Z,15.98
2022-11-03T11:23:27.332Z,16.48
2022-11-03T11:26:09.172Z,17.20
2022-11-03T11:28:37.302Z,15.77
2022-11-03T11:31:22.726Z,15.20
2022-11-03T11:33:50.148Z,14.93
2022-11-03T11:36:25.188Z,16.30
2022-11-03T11:38:52.404Z,15.88
2022-11-03T11:41:20.876Z,14.68
2022-11-03T11:43:47.599Z,16.58
2022-11-03T11:46:23.493Z,15.35
2022-11-03T11:49:17.090Z,16.90
2022-11-03T11:51:43.641Z,15.02
2022-11-03T11:54:17.898Z,14.93
2022-11-03T11:56:49.942Z,16.35
2022-11-03T11:59:24.769Z,15.10
2022-11-03T12:01:55.306Z,15.98
2022-11-03T12:04:33.195Z,17.73
2022-11-03T12:06:59.752Z,17.15
2022-11-03T12:09:28.471Z,18.83
2022-11-03T12:11:59.415Z,18.33
2022-11-03T12:14:46.068Z,16.75
2022-11-03T12:17:18.693Z,16.02
2022-11-03T12:19:47.429Z,16.23
2022-11-03T12:22:29.506Z,15.93
2022-11-03T12:24:58.730Z,17.17
2022-11-03T12:27:25.259Z,17.60
2022-11-03T12:30:03.738Z,19.08
2022-11-03T12:32:33.530Z,16.02
2022-11-03T12:35:02.030Z,17.15
2022-11-03T12:37:28.605Z,16.73
2022-11-03T12:39:55.146Z,17.08
2022-11-03T12:42:22.644Z,17.17
2022-11-03T12:44:49.239Z,16.30
2022-11-03T12:47:15.790Z,18.25
2022-11-03T12:49:42.528Z,18.33
2022-11-03T12:52:10.570Z,17.83
2022-11-03T12:54:37.117Z,17.90
2022-11-03T12:57:03.761Z,17.55
2022-11-03T12:59:30.315Z,16.37
2022-11-03T13:01:57.023Z,16.73
2022-11-03T13:04:23.670Z,15.85
2022-11-03T13:06:50.232Z,17.58
2022-11-03T13:09:16.814Z,16.98
2022-11-03T13:12:01.831Z,16.15
2022-11-03T13:14:28.436Z,16.15
2022-11-03T13:16:54.982Z,15.38
2022-11-03T13:19:21.522Z,16.60
2022-11-03T13:21:48.302Z,15.32
2022-11-03T13:24:14.892Z,15.85
2022-11-03T13:26:41.511Z,17.17
2022-11-03T13:29:08.263Z,18.05
2022-11-03T13:31:35.800Z,17.90
2022-11-03T13:34:02.467Z,18.60
2022-11-03T13:36:29.086Z,18.30
2022-11-03T13:38:55.656Z,16.25
2022-11-03T13:41:22.182Z,16.67
2022-11-03T13:43:48.814Z,16.87
2022-11-03T13:46:15.336Z,16.58
2022-11-03T13:51:28.409Z,16.75
2022-11-03T13:59:28.608Z,16.87
2022-11-03T14:04:43.340Z,16.15
2022-11-03T14:07:10.704Z,16.17
2022-11-03T14:12:27.397Z,17.05
2022-11-03T14:14:54.028Z,15.65
2022-11-03T14:17:20.565Z,15.68
2022-11-03T14:20:05.018Z,16.05
2022-11-03T14:22:32.469Z,14.15
2022-11-03T14:24:59.632Z,13.80
2022-11-03T14:27:26.298Z,14.60
2022-11-03T14:30:23.905Z,15.52
2022-11-03T14:36:24.594Z,15.65
2022-11-03T14:38:51.260Z,15.68
2022-11-03T14:41:36.691Z,15.85
2022-11-03T14:44:06.240Z,16.33
2022-11-03T14:46:33.478Z,15.77
2022-11-03T14:49:01.790Z,16.17
2022-11-03T14:51:29.574Z,15.75
2022-11-03T14:53:58.547Z,16.95
2022-11-03T14:56:25.387Z,16.58
2022-11-03T14:58:52.519Z,16.05
2022-11-03T15:01:20.920Z,17.05
2022-11-03T15:03:47.826Z,16.58
2022-11-03T15:06:14.653Z,17.30
2022-11-03T15:08:41.246Z,16.87
2022-11-03T15:13:56.488Z,16.12
2022-11-03T15:16:23.301Z,17.20
2022-11-03T15:18:50.850Z,16.87
2022-11-03T15:21:20.604Z,17.15
2022-11-03T15:26:33.994Z,18.35
2022-11-03T15:29:00.565Z,16.90
2022-11-03T15:31:29.902Z,15.63
2022-11-03T15:33:56.485Z,15.35
2022-11-03T15:36:23.676Z,16.45
2022-11-03T15:38:50.285Z,15.52
2022-11-03T15:41:16.887Z,18.17
2022-11-03T15:43:47.475Z,20.62
2022-11-03T15:46:15.180Z,18.70
2022-11-03T15:48:42.660Z,18.50
2022-11-03T15:51:09.733Z,18.48
2022-11-03T15:53:36.685Z,20.45
2022-11-03T15:56:04.035Z,20.37
2022-11-03T15:58:34.166Z,21.40
2022-11-03T16:01:03.088Z,22.10
2022-11-03T16:03:30.558Z,21.37
2022-11-03T16:09:59.924Z,21.77
2022-11-03T16:12:26.515Z,21.55
2022-11-03T16:14:53.715Z,22.77
2022-11-03T16:17:22.363Z,21.98
2022-11-03T16:19:49.483Z,23.87
2022-11-03T16:22:16.106Z,23.40
2022-11-03T16:27:31.154Z,23.45
2022-11-03T16:29:57.967Z,25.77
2022-11-03T16:32:24.670Z,26.40
2022-11-03T16:34:51.227Z,28.40
2022-11-03T16:37:17.862Z,25.70
2022-11-03T16:40:16.344Z,26.02
2022-11-03T16:43:36.692Z,26.35
2022-11-03T16:46:03.339Z,26.20
2022-11-03T16:48:29.909Z,26.25
2022-11-03T16:50:57.999Z,25.25
2022-11-03T16:53:24.721Z,25.60
2022-11-03T16:55:51.254Z,24.75
2022-11-03T16:58:17.889Z,25.40
2022-11-03T17:00:44.472Z,24.15
2022-11-03T17:03:11.040Z,24.17
2022-11-03T17:05:37.852Z,26.00
2022-11-03T17:13:22.900Z,26.35
2022-11-03T17:15:49.554Z,24.05
2022-11-03T17:18:18.791Z,22.62
2022-11-03T17:20:45.358Z,24.08
2022-11-03T17:23:11.926Z,23.73
2022-11-03T17:25:38.720Z,22.70
2022-11-03T17:28:05.829Z,23.05
2022-11-03T17:30:34.799Z,22.42
2022-11-03T17:33:07.643Z,24.00
2022-11-03T17:35:42.508Z,23.48
2022-11-03T17:38:19.099Z,22.67
2022-11-03T17:40:47.781Z,24.20
2022-11-03T17:43:22.465Z,23.33
2022-11-03T17:45:49.286Z,22.05
2022-11-03T17:48:16.045Z,23.20
2022-11-03T17:50:46.453Z,23.23
2022-11-03T17:53:22.335Z,22.52
2022-11-03T17:56:08.898Z,23.30
2022-11-03T17:58:43.214Z,22.58
2022-11-03T18:01:14.057Z,23.70
2022-11-03T18:03:41.181Z,25.25
2022-11-03T18:06:19.348Z,23.60
2022-11-03T18:08:47.514Z,23.02
2022-11-03T18:11:48.823Z,23.10
2022-11-03T18:14:16.032Z,23.33
2022-11-03T18:16:42.627Z,22.15
2022-11-03T18:19:14.039Z,25.12
2022-11-03T18:21:41.189Z,24.42
2022-11-03T18:24:19.610Z,23.62
2022-11-03T18:26:46.224Z,24.37
2022-11-03T18:29:12.952Z,23.00
2022-11-03T18:31:49.606Z,25.98
2022-11-03T18:36:53.043Z,22.77
2022-11-03T18:39:24.153Z,21.70
2022-11-03T18:41:50.761Z,22.00
2022-11-03T18:44:44.628Z,22.58
2022-11-03T18:47:11.197Z,23.30
2022-11-03T18:49:37.883Z,22.25
2022-11-03T18:52:13.952Z,23.17
2022-11-03T18:54:45.113Z,21.98
2022-11-03T18:57:12.734Z,22.87
2022-11-03T18:59:44.498Z,21.65
2022-11-03T19:02:18.732Z,23.67
2022-11-03T19:04:45.670Z,21.85
2022-11-03T19:07:25.121Z,22.52
2022-11-03T19:09:52.412Z,22.17
2022-11-03T19:12:19.567Z,23.27
2022-11-03T19:14:51.734Z,22.27
2022-11-03T19:17:23.450Z,21.30
2022-11-03T19:19:52.593Z,21.75
2022-11-03T19:22:21.561Z,20.88
2022-11-03T19:24:48.261Z,20.48
2022-11-03T19:27:25.526Z,21.17
2022-11-03T19:29:52.747Z,21.65
2022-11-03T19:32:41.308Z,20.33
2022-11-03T19:35:23.428Z,21.67
2022-11-03T19:37:55.274Z,22.25
2022-11-03T19:40:22.153Z,21.67
2022-11-03T19:42:48.886Z,20.20
2022-11-03T19:45:20.263Z,20.55
2022-11-03T19:50:26.390Z,21.73
2022-11-03T19:53:04.067Z,21.02
2022-11-03T20:01:09.181Z,20.67
2022-11-03T20:03:36.490Z,19.87
2022-11-03T20:06:03.222Z,20.05
2022-11-03T20:08:42.121Z,19.55
2022-11-03T20:11:08.784Z,19.60
2022-11-03T20:13:55.801Z,20.52
2022-11-03T20:16:36.088Z,19.80
2022-11-03T20:21:51.716Z,20.70
2022-11-03T20:24:19.462Z,19.42
2022-11-03T20:26:46.303Z,18.92
2022-11-03T20:29:14.244Z,19.33
2022-11-03T20:31:43.306Z,18.70
2022-11-03T20:34:14.614Z,18.25
2022-11-03T20:36:48.212Z,18.87
2022-11-03T20:39:17.130Z,18.45
2022-11-03T20:41:47.191Z,18.92
2022-11-03T20:44:15.339Z,19.08
2022-11-03T20:46:42.914Z,18.40
2022-11-03T20:49:12.192Z,17.33
2022-11-03T20:51:48.283Z,18.37
2022-11-03T20:54:18.819Z,18.12
2022-11-03T20:56:46.320Z,17.33
2022-11-03T21:01:48.434Z,19.40
2022-11-03T21:04:40.330Z,18.33
2022-11-03T21:07:46.052Z,17.17
2022-11-03T21:10:20.573Z,17.42
2022-11-03T21:12:48.055Z,17.42
2022-11-03T21:16:03.765Z,17.37
2022-11-03T21:18:47.624Z,17.08
2022-11-03T21:21:20.518Z,17.95
2022-11-03T21:23:47.772Z,16.83
2022-11-03T21:26:14.427Z,16.83
2022-11-03T21:31:36.282Z,16.85
2022-11-03T21:34:02.831Z,16.83
2022-11-03T21:36:29.391Z,17.02
2022-11-03T21:39:45.985Z,17.05
2022-11-03T21:42:51.262Z,17.67
2022-11-03T21:45:33.209Z,16.65
2022-11-03T21:48:19.908Z,16.33
2022-11-03T21:50:47.270Z,16.37
2022-11-03T21:53:14.046Z,16.20
2022-11-03T21:55:40.973Z,15.63
2022-11-03T21:58:07.826Z,16.52
2022-11-03T22:00:35.048Z,16.52
2022-11-03T22:03:01.654Z,15.43
2022-11-03T22:05:28.617Z,17.37
2022-11-03T22:07:55.208Z,15.27
2022-11-03T22:10:21.850Z,15.23
2022-11-03T22:18:14.550Z,17.60
2022-11-03T22:21:00.403Z,15.75
2022-11-03T22:23:45.851Z,16.60
2022-11-03T22:26:34.169Z,15.52
2022-11-03T22:35:30.863Z,17.15
2022-11-03T22:38:08.380Z,16.15
2022-11-03T22:40:54.982Z,15.93
2022-11-03T22:43:41.027Z,14.75
2022-11-03T22:46:09.150Z,15.38
2022-11-03T22:48:36.426Z,16.27
2022-11-03T22:51:14.622Z,14.90
2022-11-03T22:54:01.002Z,15.02
2022-11-03T22:56:29.531Z,14.85
2022-11-03T22:58:56.294Z,15.57
2022-11-03T23:01:26.796Z,15.40
2022-11-03T23:04:09.486Z,15.48
2022-11-03T23:06:38.974Z,15.45
2022-11-03T23:09:05.963Z,14.82
2022-11-03T23:11:33.588Z,14.65
2022-11-03T23:17:54.034Z,15.05
2022-11-03T23:20:39.456Z,15.13
2022-11-03T23:23:06.216Z,15.27
2022-11-03T23:25:33.029Z,15.25
2022-11-03T23:27:59.586Z,15.52
2022-11-03T23:30:26.107Z,14.60
2022-11-03T23:32:53.819Z,14.65
2022-11-03T23:35:20.347Z,14.87
2022-11-03T23:37:46.888Z,14.55
2022-11-03T23:40:17.178Z,15.80
2022-11-03T23:49:04.514Z,14.68
2022-11-03T23:51:32.317Z,14.63
2022-11-03T23:54:00.050Z,14.45
2022-11-03T23:56:47.985Z,14.30
2022-11-03T23:59:16.419Z,15.05
